createdAt,value
2019-04-30T00:00:30.334Z,0
2019-04-30T00:01:27.579Z,0
2019-04-30T00:02:27.622Z,0
2019-04-30T00:03:29.739Z,0
2019-04-30T00:04:25.415Z,0
2019-04-30T00:05:27.557Z,0
2019-04-30T00:06:39.295Z,0
2019-04-30T00:07:27.294Z,0
2019-04-30T00:08:25.681Z,0
2019-04-30T00:09:27.527Z,0
2019-04-30T00:10:27.275Z,0
2019-04-30T00:11:29.761Z,0
2019-04-30T00:12:25.714Z,0
2019-04-30T00:13:28.345Z,0
2019-04-30T00:14:24.976Z,0
2019-04-30T00:15:28.144Z,0
2019-04-30T00:16:25.247Z,0
2019-04-30T00:17:28.085Z,0
2019-04-30T00:18:25.417Z,0
2019-04-30T00:19:28.343Z,0
2019-04-30T00:20:25.552Z,0
2019-04-30T00:21:27.464Z,0
2019-04-30T00:22:50.371Z,0
2019-04-30T00:23:33.152Z,0
2019-04-30T00:24:23.082Z,0
2019-04-30T00:25:35.031Z,0
2019-04-30T00:26:27.759Z,0
2019-04-30T00:27:33.541Z,0
2019-04-30T00:28:25.510Z,0
2019-04-30T00:29:35.719Z,0
2019-04-30T00:30:25.196Z,0
2019-04-30T00:31:34.979Z,0
2019-04-30T00:32:23.147Z,0
2019-04-30T00:33:35.321Z,0
2019-04-30T00:34:25.019Z,0
2019-04-30T00:35:27.827Z,0
2019-04-30T00:36:37.444Z,0
2019-04-30T00:37:27.891Z,0
2019-04-30T00:38:25.242Z,0
2019-04-30T00:39:26.919Z,0
2019-04-30T00:40:32.622Z,0
2019-04-30T00:41:22.462Z,0
2019-04-30T00:42:35.822Z,0
2019-04-30T00:43:22.709Z,0
2019-04-30T00:44:31.440Z,0
2019-04-30T00:45:25.220Z,0
2019-04-30T00:46:38.856Z,0
2019-04-30T00:47:22.606Z,0
2019-04-30T00:48:38.024Z,0
2019-04-30T00:49:35.037Z,0
2019-04-30T00:50:24.846Z,0
2019-04-30T00:51:30.960Z,0
2019-04-30T00:52:25.272Z,0
2019-04-30T00:53:26.195Z,0
2019-04-30T00:54:31.692Z,0
2019-04-30T00:55:24.925Z,0
2019-04-30T00:56:31.556Z,0
2019-04-30T00:57:26.205Z,0
2019-04-30T00:58:37.938Z,0
2019-04-30T00:59:22.459Z,0
2019-04-30T01:00:37.081Z,0
2019-04-30T01:01:22.432Z,0
2019-04-30T01:02:38.169Z,0
2019-04-30T01:03:22.539Z,0
2019-04-30T01:04:31.468Z,0
2019-04-30T01:05:22.830Z,0
2019-04-30T01:06:37.388Z,0
2019-04-30T01:07:22.788Z,0
2019-04-30T01:08:32.230Z,0
2019-04-30T01:09:22.694Z,0
2019-04-30T01:10:30.794Z,0
2019-04-30T01:11:22.576Z,0
2019-04-30T01:12:52.386Z,0
2019-04-30T01:13:24.018Z,0
2019-04-30T01:14:28.073Z,0
2019-04-30T01:15:23.877Z,0
2019-04-30T01:16:28.297Z,0
2019-04-30T01:17:23.635Z,0
2019-04-30T01:18:28.455Z,0
2019-04-30T01:19:45.861Z,0
2019-04-30T01:20:29.013Z,0
2019-04-30T01:21:23.269Z,0
2019-04-30T01:22:35.371Z,0
2019-04-30T01:23:24.197Z,0
2019-04-30T01:24:28.256Z,0
2019-04-30T01:25:25.297Z,0
2019-04-30T01:26:27.595Z,0
2019-04-30T01:27:23.562Z,0
2019-04-30T01:28:30.834Z,0
2019-04-30T01:29:23.974Z,0
2019-04-30T01:30:28.614Z,0
2019-04-30T01:31:23.851Z,0
2019-04-30T01:32:30.775Z,0
2019-04-30T01:33:28.275Z,0
2019-04-30T01:34:24.408Z,0
2019-04-30T01:35:28.935Z,0
2019-04-30T01:36:24.051Z,0
2019-04-30T01:37:34.696Z,0
2019-04-30T01:38:23.677Z,0
2019-04-30T01:39:28.368Z,0
2019-04-30T01:40:23.802Z,0
2019-04-30T01:41:31.342Z,0
2019-04-30T01:42:23.274Z,0
2019-04-30T01:43:38.485Z,0
2019-04-30T01:44:22.001Z,0
2019-04-30T01:45:28.031Z,0
2019-04-30T01:46:23.956Z,0
2019-04-30T01:47:33.719Z,0
2019-04-30T01:48:24.093Z,0
2019-04-30T01:49:28.953Z,0
2019-04-30T01:50:21.876Z,0
2019-04-30T01:51:28.551Z,0
2019-04-30T01:52:21.826Z,0
2019-04-30T01:53:23.371Z,0
2019-04-30T01:54:29.281Z,0
2019-04-30T01:55:22.121Z,0
2019-04-30T01:56:23.860Z,0
2019-04-30T01:57:21.734Z,0
2019-04-30T01:58:24.178Z,0
2019-04-30T01:59:23.747Z,0
2019-04-30T02:00:22.015Z,0
2019-04-30T02:01:23.698Z,0
2019-04-30T02:02:23.222Z,0
2019-04-30T02:03:24.000Z,0
2019-04-30T02:04:22.020Z,0
2019-04-30T02:05:23.571Z,0
2019-04-30T02:06:22.133Z,0
2019-04-30T02:07:23.762Z,0
2019-04-30T02:08:22.022Z,0
2019-04-30T02:09:23.649Z,0
2019-04-30T02:10:23.340Z,0
2019-04-30T02:11:23.694Z,0
2019-04-30T02:12:24.166Z,0
2019-04-30T02:13:23.584Z,0
2019-04-30T02:14:21.503Z,0
2019-04-30T02:15:21.747Z,0
2019-04-30T02:16:25.540Z,0
2019-04-30T02:17:21.719Z,0
2019-04-30T02:18:21.976Z,0
2019-04-30T02:19:23.541Z,0
2019-04-30T02:20:23.279Z,0
2019-04-30T02:21:21.951Z,0
2019-04-30T02:22:23.616Z,0
2019-04-30T02:23:22.087Z,0
2019-04-30T02:24:23.858Z,0
2019-04-30T02:25:21.951Z,0
2019-04-30T02:26:23.378Z,0
2019-04-30T02:27:23.823Z,0
2019-04-30T02:28:21.530Z,0
2019-04-30T02:29:21.540Z,0
2019-04-30T02:30:23.400Z,0
2019-04-30T02:31:27.156Z,0
2019-04-30T02:32:23.297Z,0
2019-04-30T02:33:24.477Z,0
2019-04-30T02:34:24.420Z,0
2019-04-30T02:35:24.038Z,0
2019-04-30T02:36:22.288Z,0
2019-04-30T02:37:23.506Z,0
2019-04-30T02:38:22.665Z,0
2019-04-30T02:39:22.825Z,0
2019-04-30T02:40:22.641Z,0
2019-04-30T02:41:24.039Z,0
2019-04-30T02:42:25.051Z,0
2019-04-30T02:43:22.836Z,0
2019-04-30T02:44:22.047Z,0
2019-04-30T02:45:22.241Z,0
2019-04-30T02:46:21.696Z,0
2019-04-30T02:47:22.790Z,0
2019-04-30T02:48:24.123Z,0
2019-04-30T02:49:22.943Z,0
2019-04-30T02:50:31.825Z,0
2019-04-30T02:51:25.012Z,0
2019-04-30T02:52:22.025Z,0
2019-04-30T02:53:22.333Z,0
2019-04-30T02:54:25.501Z,0
2019-04-30T02:55:21.881Z,0
2019-04-30T02:56:26.160Z,0
2019-04-30T02:57:25.410Z,0
2019-04-30T02:58:23.515Z,0
2019-04-30T02:59:22.686Z,0
2019-04-30T03:00:22.847Z,0
2019-04-30T03:01:22.719Z,0
2019-04-30T03:02:24.268Z,0
2019-04-30T03:03:25.123Z,0
2019-04-30T03:04:22.065Z,0
2019-04-30T03:05:25.093Z,0
2019-04-30T03:06:25.695Z,0
2019-04-30T03:07:21.821Z,0
2019-04-30T03:08:22.370Z,0
2019-04-30T03:09:22.681Z,0
2019-04-30T03:10:22.360Z,0
2019-04-30T03:11:23.300Z,0
2019-04-30T03:12:22.704Z,0
2019-04-30T03:13:22.560Z,0
2019-04-30T03:14:22.665Z,0
2019-04-30T03:15:24.853Z,0
2019-04-30T03:16:23.306Z,0
2019-04-30T03:17:23.448Z,0
2019-04-30T03:18:25.142Z,0
2019-04-30T03:19:22.061Z,0
2019-04-30T03:20:44.836Z,0
2019-04-30T03:21:21.582Z,0
2019-04-30T03:22:22.754Z,0
2019-04-30T03:23:21.990Z,0
2019-04-30T03:24:22.448Z,0
2019-04-30T03:25:21.712Z,0
2019-04-30T03:26:24.838Z,0
2019-04-30T03:27:24.736Z,5
2019-04-30T03:28:22.688Z,5
2019-04-30T03:29:25.930Z,5
2019-04-30T03:30:26.383Z,5
2019-04-30T03:31:26.999Z,5
2019-04-30T03:32:31.538Z,5
2019-04-30T03:33:32.053Z,10
2019-04-30T03:34:41.694Z,10
2019-04-30T03:35:31.684Z,10
2019-04-30T03:36:26.330Z,10
2019-04-30T03:37:22.285Z,10
2019-04-30T03:38:22.726Z,15
2019-04-30T03:39:22.315Z,15
2019-04-30T03:40:24.973Z,15
2019-04-30T03:41:22.338Z,20
2019-04-30T03:42:33.105Z,20
2019-04-30T03:43:22.584Z,20
2019-04-30T03:44:39.687Z,25
2019-04-30T03:45:22.922Z,25
2019-04-30T03:46:21.864Z,25
2019-04-30T03:47:22.680Z,30
2019-04-30T03:48:22.508Z,30
2019-04-30T03:49:25.065Z,30
2019-04-30T03:50:22.332Z,35
2019-04-30T03:51:22.359Z,35
2019-04-30T03:52:24.506Z,40
2019-04-30T03:53:22.722Z,40
2019-04-30T03:54:21.882Z,40
2019-04-30T03:55:24.900Z,40
2019-04-30T03:56:24.951Z,40
2019-04-30T03:57:23.013Z,45
2019-04-30T03:58:23.822Z,45
2019-04-30T03:59:22.379Z,50
2019-04-30T04:00:22.687Z,50
2019-04-30T04:01:22.077Z,55
2019-04-30T04:02:25.541Z,55
2019-04-30T04:03:22.587Z,60
2019-04-30T04:04:22.578Z,60
2019-04-30T04:05:22.538Z,65
2019-04-30T04:06:23.677Z,65
2019-04-30T04:07:22.642Z,70
2019-04-30T04:08:22.025Z,70
2019-04-30T04:09:24.491Z,75
2019-04-30T04:10:22.019Z,75
2019-04-30T04:11:22.363Z,80
2019-04-30T04:12:25.046Z,90
2019-04-30T04:13:22.197Z,110
2019-04-30T04:14:22.222Z,110
2019-04-30T04:15:22.400Z,115
2019-04-30T04:16:21.972Z,120
2019-04-30T04:17:22.621Z,125
2019-04-30T04:18:22.700Z,130
2019-04-30T04:19:22.139Z,115
2019-04-30T04:20:22.767Z,120
2019-04-30T04:21:29.918Z,125
2019-04-30T04:22:23.103Z,130
2019-04-30T04:23:21.742Z,130
2019-04-30T04:24:22.715Z,135
2019-04-30T04:25:25.259Z,140
2019-04-30T04:26:22.554Z,145
2019-04-30T04:27:21.992Z,150
2019-04-30T04:28:22.670Z,155
2019-04-30T04:29:24.444Z,160
2019-04-30T04:30:22.907Z,165
2019-04-30T04:31:21.845Z,170
2019-04-30T04:32:26.064Z,170
2019-04-30T04:33:22.251Z,175
2019-04-30T04:34:22.194Z,185
2019-04-30T04:35:24.618Z,190
2019-04-30T04:36:20.051Z,195
2019-04-30T04:37:22.559Z,200
2019-04-30T04:38:22.899Z,210
2019-04-30T04:39:22.428Z,210
2019-04-30T04:40:23.268Z,215
2019-04-30T04:41:22.229Z,215
2019-04-30T04:42:21.959Z,220
2019-04-30T04:43:22.569Z,230
2019-04-30T04:44:25.237Z,235
2019-04-30T04:45:35.183Z,240
2019-04-30T04:46:20.491Z,245
2019-04-30T04:47:24.877Z,250
2019-04-30T04:48:25.207Z,255
2019-04-30T04:49:20.566Z,260
2019-04-30T04:50:22.358Z,270
2019-04-30T04:51:49.250Z,285
2019-04-30T04:52:23.758Z,285
2019-04-30T04:53:22.016Z,295
2019-04-30T04:54:22.441Z,300
2019-04-30T04:55:24.345Z,305
2019-04-30T04:56:21.503Z,305
2019-04-30T04:57:32.683Z,315
2019-04-30T04:58:26.269Z,315
2019-04-30T04:59:22.468Z,320
2019-04-30T05:00:21.907Z,325
2019-04-30T05:01:22.866Z,335
2019-04-30T05:02:21.891Z,345
2019-04-30T05:03:20.112Z,350
2019-04-30T05:04:22.442Z,360
2019-04-30T05:05:21.794Z,365
2019-04-30T05:06:24.605Z,365
2019-04-30T05:07:19.666Z,370
2019-04-30T05:08:20.955Z,370
2019-04-30T05:09:19.574Z,380
2019-04-30T05:10:21.555Z,385
2019-04-30T05:11:19.332Z,400
2019-04-30T05:12:20.900Z,400
2019-04-30T05:13:19.320Z,405
2019-04-30T05:14:21.461Z,410
2019-04-30T05:15:19.587Z,420
2019-04-30T05:16:21.382Z,425
2019-04-30T05:17:19.505Z,430
2019-04-30T05:18:19.241Z,440
2019-04-30T05:19:21.121Z,450
2019-04-30T05:20:21.758Z,450
2019-04-30T05:21:21.190Z,450
2019-04-30T05:22:21.103Z,455
2019-04-30T05:23:21.792Z,455
2019-04-30T05:24:21.389Z,460
2019-04-30T05:25:21.142Z,470
2019-04-30T05:26:22.815Z,475
2019-04-30T05:27:19.784Z,485
2019-04-30T05:28:21.307Z,495
2019-04-30T05:29:21.113Z,515
2019-04-30T05:30:22.300Z,520
2019-04-30T05:31:21.246Z,605
2019-04-30T05:32:19.664Z,605
2019-04-30T05:33:21.022Z,610
2019-04-30T05:34:21.316Z,615
2019-04-30T05:35:21.005Z,615
2019-04-30T05:36:19.322Z,615
2019-04-30T05:37:22.455Z,625
2019-04-30T05:38:21.320Z,630
2019-04-30T05:39:21.201Z,645
2019-04-30T05:40:21.339Z,670
2019-04-30T05:41:19.402Z,700
2019-04-30T05:42:20.894Z,735
2019-04-30T05:43:21.659Z,745
2019-04-30T05:44:20.941Z,750
2019-04-30T05:45:19.303Z,760
2019-04-30T05:46:22.071Z,770
2019-04-30T05:47:19.657Z,775
2019-04-30T05:48:21.040Z,790
2019-04-30T05:49:22.376Z,790
2019-04-30T05:50:19.936Z,805
2019-04-30T05:51:21.725Z,810
2019-04-30T05:52:22.405Z,820
2019-04-30T05:53:21.400Z,825
2019-04-30T05:54:21.316Z,830
2019-04-30T05:55:19.750Z,835
2019-04-30T05:56:19.433Z,845
2019-04-30T05:57:19.773Z,860
2019-04-30T05:58:19.686Z,870
2019-04-30T05:59:22.950Z,890
2019-04-30T06:00:21.535Z,895
2019-04-30T06:01:19.734Z,905
2019-04-30T06:02:21.887Z,895
2019-04-30T06:03:35.376Z,920
2019-04-30T06:04:19.424Z,930
2019-04-30T06:05:21.083Z,935
2019-04-30T06:06:21.842Z,945
2019-04-30T06:07:21.190Z,955
2019-04-30T06:08:19.299Z,970
2019-04-30T06:09:40.957Z,970
2019-04-30T06:10:19.372Z,980
2019-04-30T06:11:19.349Z,985
2019-04-30T06:12:22.642Z,995
2019-04-30T06:13:19.226Z,1015
2019-04-30T06:14:20.969Z,1025
2019-04-30T06:15:21.856Z,1040
2019-04-30T06:16:21.176Z,1050
2019-04-30T06:17:19.761Z,1060
2019-04-30T06:18:24.863Z,1080
2019-04-30T06:19:19.563Z,1095
2019-04-30T06:20:28.769Z,1105
2019-04-30T06:21:21.518Z,1110
2019-04-30T06:22:21.497Z,1120
2019-04-30T06:23:19.524Z,1130
2019-04-30T06:24:21.201Z,1140
2019-04-30T06:25:56.065Z,1150
2019-04-30T06:26:25.368Z,1170
2019-04-30T06:27:21.591Z,1160
2019-04-30T06:28:19.629Z,1170
2019-04-30T06:29:19.052Z,1190
2019-04-30T06:30:22.014Z,1200
2019-04-30T06:31:32.098Z,1205
2019-04-30T06:32:21.069Z,1220
2019-04-30T06:33:21.773Z,1240
2019-04-30T06:34:19.743Z,1250
2019-04-30T06:35:19.487Z,1265
2019-04-30T06:36:21.503Z,1255
2019-04-30T06:37:21.759Z,1255
2019-04-30T06:38:20.948Z,1260
2019-04-30T06:39:21.116Z,1265
2019-04-30T06:40:22.060Z,1280
2019-04-30T06:41:19.780Z,1290
2019-04-30T06:42:24.243Z,1300
2019-04-30T06:43:21.404Z,1310
2019-04-30T06:44:19.539Z,1320
2019-04-30T06:45:19.315Z,1335
2019-04-30T06:46:21.040Z,1345
2019-04-30T06:47:32.312Z,1360
2019-04-30T06:48:19.848Z,1385
2019-04-30T06:49:19.499Z,1390
2019-04-30T06:50:19.507Z,1400
2019-04-30T06:51:21.301Z,1425
2019-04-30T06:52:31.764Z,1440
2019-04-30T06:53:19.385Z,1470
2019-04-30T06:54:21.601Z,1475
2019-04-30T06:55:19.371Z,1475
2019-04-30T06:56:21.241Z,1500
2019-04-30T06:57:22.325Z,1520
2019-04-30T06:58:29.107Z,1510
2019-04-30T06:59:20.323Z,1490
2019-04-30T07:00:20.790Z,1455
2019-04-30T07:01:21.400Z,1440
2019-04-30T07:02:19.761Z,1435
2019-04-30T07:03:21.478Z,1430
2019-04-30T07:04:21.784Z,1445
2019-04-30T07:05:21.027Z,1470
2019-04-30T07:06:36.798Z,1470
2019-04-30T07:07:41.152Z,1485
2019-04-30T07:08:35.543Z,1495
2019-04-30T07:09:19.675Z,1500
2019-04-30T07:10:29.343Z,1520
2019-04-30T07:11:21.661Z,1540
2019-04-30T07:12:39.059Z,1555
2019-04-30T07:13:21.217Z,1560
2019-04-30T07:14:19.621Z,1580
2019-04-30T07:15:22.107Z,1600
2019-04-30T07:16:21.432Z,1630
2019-04-30T07:17:19.609Z,1615
2019-04-30T07:18:21.269Z,1580
2019-04-30T07:19:50.074Z,1465
2019-04-30T07:20:21.605Z,1405
2019-04-30T07:21:22.040Z,1400
2019-04-30T07:22:36.452Z,1400
2019-04-30T07:23:21.235Z,1400
2019-04-30T07:24:23.200Z,1405
2019-04-30T07:25:21.821Z,1435
2019-04-30T07:26:31.382Z,1485
2019-04-30T07:27:26.057Z,1510
2019-04-30T07:28:21.423Z,1545
2019-04-30T07:29:19.721Z,1565
2019-04-30T07:30:21.605Z,1590
2019-04-30T07:31:26.274Z,1610
2019-04-30T07:32:22.159Z,1640
2019-04-30T07:33:23.173Z,1700
2019-04-30T07:34:21.916Z,1740
2019-04-30T07:35:21.901Z,1735
2019-04-30T07:36:21.893Z,1730
2019-04-30T07:37:33.939Z,1710
2019-04-30T07:38:21.693Z,1670
2019-04-30T07:39:23.380Z,1645
2019-04-30T07:40:21.435Z,1620
2019-04-30T07:41:21.346Z,1640
2019-04-30T07:42:21.506Z,1910
2019-04-30T07:43:21.401Z,2230
2019-04-30T07:46:49.301Z,2305
2019-04-30T07:47:02.197Z,2295
2019-04-30T07:47:59.493Z,2295
2019-04-30T07:49:02.317Z,2320
2019-04-30T07:50:10.582Z,2315
2019-04-30T07:51:03.943Z,2325
2019-04-30T07:52:04.540Z,2345
2019-04-30T07:55:15.451Z,2400
2019-04-30T07:55:26.795Z,2385
2019-04-30T07:56:46.612Z,2400
2019-04-30T07:57:26.469Z,2410
2019-04-30T07:58:29.801Z,2445
2019-04-30T07:59:29.851Z,2420
2019-04-30T08:00:26.603Z,2375
2019-04-30T08:01:28.993Z,2395
2019-04-30T08:02:29.839Z,2395
2019-04-30T08:03:30.131Z,2345
2019-04-30T08:04:25.940Z,2340
2019-04-30T08:05:29.707Z,2220
2019-04-30T08:06:30.557Z,1770
2019-04-30T08:07:29.481Z,1555
2019-04-30T08:08:35.392Z,1555
2019-04-30T08:09:38.584Z,1555
2019-04-30T08:10:26.008Z,1565
2019-04-30T08:11:44.753Z,1560
2019-04-30T08:12:50.105Z,1555
2019-04-30T08:13:35.307Z,1540
2019-04-30T08:14:31.192Z,1530
2019-04-30T08:15:26.979Z,1535
2019-04-30T08:16:25.808Z,1555
2019-04-30T08:17:26.020Z,1575
2019-04-30T08:18:25.623Z,1585
2019-04-30T08:19:26.236Z,1600
2019-04-30T08:20:26.816Z,1630
2019-04-30T08:21:26.136Z,1670
2019-04-30T08:22:26.765Z,1675
2019-04-30T08:23:44.774Z,1700
2019-04-30T08:24:26.454Z,1705
2019-04-30T08:25:31.397Z,1695
2019-04-30T08:26:25.968Z,1705
2019-04-30T08:27:26.857Z,1700
2019-04-30T08:28:25.853Z,1695
2019-04-30T08:29:26.612Z,1700
2019-04-30T08:30:38.951Z,1680
2019-04-30T08:31:26.699Z,1685
2019-04-30T08:32:26.271Z,1680
2019-04-30T08:33:26.521Z,1570
2019-04-30T08:34:29.026Z,885
2019-04-30T08:35:26.847Z,310
2019-04-30T08:36:26.802Z,280
2019-04-30T08:37:31.216Z,275
2019-04-30T08:38:26.287Z,275
2019-04-30T08:39:26.839Z,270
2019-04-30T08:40:25.942Z,270
2019-04-30T08:41:26.465Z,270
2019-04-30T08:42:44.606Z,270
2019-04-30T08:43:26.975Z,270
2019-04-30T08:44:29.418Z,270
2019-04-30T08:45:26.862Z,270
2019-04-30T08:46:26.277Z,265
2019-04-30T08:47:29.076Z,265
2019-04-30T08:48:39.091Z,265
2019-04-30T08:49:30.363Z,265
2019-04-30T08:50:29.122Z,265
2019-04-30T08:51:28.770Z,270
2019-04-30T08:52:27.126Z,265
2019-04-30T08:53:43.177Z,265
2019-04-30T08:54:27.192Z,265
2019-04-30T08:55:30.360Z,265
2019-04-30T08:56:29.509Z,265
2019-04-30T08:57:26.377Z,265
2019-04-30T08:58:29.151Z,260
2019-04-30T08:59:26.643Z,260
2019-04-30T09:00:26.704Z,260
2019-04-30T09:01:26.903Z,260
2019-04-30T09:02:28.802Z,260
2019-04-30T09:03:26.568Z,255
2019-04-30T09:04:29.036Z,255
2019-04-30T09:05:28.023Z,255
2019-04-30T09:06:28.953Z,255
2019-04-30T09:07:26.856Z,250
2019-04-30T09:08:26.537Z,250
2019-04-30T09:09:25.997Z,250
2019-04-30T09:10:26.429Z,250
2019-04-30T09:11:59.115Z,250
2019-04-30T09:12:26.723Z,250
2019-04-30T09:13:26.327Z,250
2019-04-30T09:14:25.831Z,250
2019-04-30T09:15:26.021Z,250
2019-04-30T09:16:26.698Z,245
2019-04-30T09:17:27.043Z,245
2019-04-30T09:18:26.249Z,245
2019-04-30T09:19:29.727Z,245
2019-04-30T09:20:26.576Z,245
2019-04-30T09:21:25.839Z,245
2019-04-30T09:22:26.674Z,245
2019-04-30T09:23:25.860Z,240
2019-04-30T09:24:26.229Z,240
2019-04-30T09:25:28.443Z,240
2019-04-30T09:26:25.896Z,240
2019-04-30T09:27:26.734Z,240
2019-04-30T09:28:26.960Z,240
2019-04-30T09:29:26.263Z,240
2019-04-30T09:30:26.052Z,240
2019-04-30T09:31:26.941Z,235
2019-04-30T09:32:26.454Z,235
2019-04-30T09:33:26.579Z,235
2019-04-30T09:34:31.520Z,235
2019-04-30T09:35:29.392Z,235
2019-04-30T09:36:29.195Z,240
2019-04-30T09:37:25.904Z,230
2019-04-30T09:38:26.695Z,230
2019-04-30T09:39:29.518Z,230
2019-04-30T09:40:32.847Z,230
2019-04-30T09:41:26.376Z,230
2019-04-30T09:42:26.755Z,230
2019-04-30T09:43:25.930Z,230
2019-04-30T09:44:26.599Z,230
2019-04-30T09:45:25.855Z,230
2019-04-30T09:46:38.777Z,230
2019-04-30T09:47:27.217Z,230
2019-04-30T09:48:26.258Z,230
2019-04-30T09:49:26.347Z,230
2019-04-30T09:50:25.968Z,230
2019-04-30T09:51:33.172Z,230
2019-04-30T09:52:29.925Z,230
2019-04-30T09:53:26.968Z,225
2019-04-30T09:54:28.835Z,225
2019-04-30T09:55:26.474Z,225
2019-04-30T09:56:26.452Z,225
2019-04-30T09:57:26.439Z,225
2019-04-30T09:58:30.062Z,225
2019-04-30T09:59:26.102Z,225
2019-04-30T10:00:26.521Z,220
2019-04-30T10:01:27.800Z,220
2019-04-30T10:02:26.339Z,220
2019-04-30T10:03:30.600Z,220
2019-04-30T10:04:30.123Z,220
2019-04-30T10:05:29.193Z,220
2019-04-30T10:06:40.280Z,215
2019-04-30T10:07:26.663Z,215
2019-04-30T10:08:30.136Z,215
2019-04-30T10:09:26.500Z,215
2019-04-30T10:10:25.984Z,215
2019-04-30T10:11:25.194Z,215
2019-04-30T10:12:26.679Z,215
2019-04-30T10:13:25.191Z,215
2019-04-30T10:14:25.196Z,215
2019-04-30T10:15:26.019Z,215
2019-04-30T10:16:26.656Z,215
2019-04-30T10:17:25.163Z,215
2019-04-30T10:18:25.156Z,215
2019-04-30T10:19:26.265Z,215
2019-04-30T10:20:25.142Z,210
2019-04-30T10:21:26.194Z,210
2019-04-30T10:22:25.132Z,210
2019-04-30T10:23:26.521Z,210
2019-04-30T10:24:26.744Z,210
2019-04-30T10:25:25.113Z,210
2019-04-30T10:26:25.108Z,210
2019-04-30T10:27:26.419Z,205
2019-04-30T10:28:26.856Z,205
2019-04-30T10:29:25.112Z,205
2019-04-30T10:30:26.336Z,205
2019-04-30T10:31:26.102Z,205
2019-04-30T10:32:25.869Z,205
2019-04-30T10:33:28.485Z,205
2019-04-30T10:34:25.066Z,205
2019-04-30T10:35:25.470Z,205
2019-04-30T10:36:26.519Z,205
2019-04-30T10:37:26.029Z,205
2019-04-30T10:38:26.614Z,205
2019-04-30T10:39:29.672Z,205
2019-04-30T10:40:28.687Z,205
2019-04-30T10:41:26.010Z,205
2019-04-30T10:42:25.053Z,205
2019-04-30T10:43:26.858Z,205
2019-04-30T10:44:25.927Z,200
2019-04-30T10:45:25.688Z,200
2019-04-30T10:46:25.004Z,200
2019-04-30T10:47:26.411Z,200
2019-04-30T10:48:25.024Z,200
2019-04-30T10:49:26.448Z,200
2019-04-30T10:50:24.985Z,200
2019-04-30T10:51:26.055Z,200
2019-04-30T10:52:26.365Z,200
2019-04-30T10:53:24.969Z,200
2019-04-30T10:54:35.907Z,200
2019-04-30T10:55:24.969Z,200
2019-04-30T10:56:26.408Z,200
2019-04-30T10:57:25.542Z,200
2019-04-30T10:58:24.972Z,200
2019-04-30T10:59:24.928Z,195
2019-04-30T11:00:25.762Z,195
2019-04-30T11:01:26.398Z,195
2019-04-30T11:02:24.949Z,195
2019-04-30T11:03:31.517Z,195
2019-04-30T11:04:24.909Z,195
2019-04-30T11:05:29.194Z,195
2019-04-30T11:06:26.073Z,190
2019-04-30T11:07:25.757Z,190
2019-04-30T11:08:24.885Z,190
2019-04-30T11:09:24.884Z,190
2019-04-30T11:10:28.635Z,190
2019-04-30T11:11:24.869Z,190
2019-04-30T11:12:26.473Z,190
2019-04-30T11:13:24.861Z,190
2019-04-30T11:14:24.849Z,190
2019-04-30T11:15:29.187Z,190
2019-04-30T11:16:26.002Z,190
2019-04-30T11:17:29.522Z,190
2019-04-30T11:18:26.046Z,185
2019-04-30T11:19:29.007Z,185
2019-04-30T11:20:29.854Z,185
2019-04-30T11:21:29.295Z,185
2019-04-30T11:22:25.883Z,185
2019-04-30T11:23:29.564Z,185
2019-04-30T11:24:53.770Z,185
2019-04-30T11:25:31.113Z,185
2019-04-30T11:26:30.817Z,185
2019-04-30T11:27:30.367Z,185
2019-04-30T11:28:28.517Z,185
2019-04-30T11:29:30.383Z,185
2019-04-30T11:30:34.748Z,185
2019-04-30T11:31:26.041Z,185
2019-04-30T11:32:26.111Z,185
2019-04-30T11:33:26.029Z,185
2019-04-30T11:34:24.754Z,185
2019-04-30T11:35:29.501Z,185
2019-04-30T11:36:26.489Z,185
2019-04-30T11:37:24.493Z,185
2019-04-30T11:38:27.541Z,185
2019-04-30T11:39:25.754Z,185
2019-04-30T11:40:40.112Z,185
2019-04-30T11:41:39.494Z,185
2019-04-30T11:42:24.719Z,185
2019-04-30T11:43:25.608Z,185
2019-04-30T11:44:40.291Z,180
2019-04-30T11:45:26.507Z,180
2019-04-30T11:46:25.824Z,180
2019-04-30T11:51:29.581Z,180
2019-04-30T11:52:24.664Z,180
2019-04-30T11:53:38.967Z,180
2019-04-30T11:54:25.572Z,180
2019-04-30T11:55:26.441Z,180
2019-04-30T11:56:24.644Z,180
2019-04-30T11:57:25.845Z,180
2019-04-30T11:58:33.020Z,185
2019-04-30T11:59:26.628Z,185
2019-04-30T12:00:25.900Z,180
2019-04-30T12:01:26.542Z,180
2019-04-30T12:02:26.448Z,175
2019-04-30T12:03:26.319Z,175
2019-04-30T12:04:26.501Z,175
2019-04-30T12:05:28.966Z,175
2019-04-30T12:06:25.607Z,175
2019-04-30T12:07:24.590Z,175
2019-04-30T12:08:29.370Z,175
2019-04-30T12:09:28.494Z,175
2019-04-30T12:10:26.503Z,175
2019-04-30T12:11:24.928Z,175
2019-04-30T12:12:26.093Z,175
2019-04-30T12:13:24.564Z,175
2019-04-30T12:14:25.555Z,175
2019-04-30T12:15:26.345Z,175
2019-04-30T12:16:25.733Z,175
2019-04-30T12:17:24.554Z,175
2019-04-30T12:18:24.538Z,175
2019-04-30T12:19:26.023Z,175
2019-04-30T12:20:26.738Z,175
2019-04-30T12:21:24.522Z,175
2019-04-30T12:22:27.268Z,175
2019-04-30T12:23:26.093Z,175
2019-04-30T12:24:24.505Z,175
2019-04-30T12:25:25.861Z,175
2019-04-30T12:26:26.163Z,175
2019-04-30T12:27:25.567Z,175
2019-04-30T12:28:27.374Z,175
2019-04-30T12:29:26.261Z,175
2019-04-30T12:30:28.950Z,175
2019-04-30T12:31:25.816Z,175
2019-04-30T12:32:26.283Z,175
2019-04-30T12:33:26.297Z,175
2019-04-30T12:34:24.462Z,175
2019-04-30T12:35:24.479Z,175
2019-04-30T12:36:26.024Z,175
2019-04-30T12:37:26.204Z,175
2019-04-30T12:38:26.342Z,175
2019-04-30T12:39:24.452Z,175
2019-04-30T12:40:41.334Z,175
2019-04-30T12:41:24.434Z,175
2019-04-30T12:42:26.060Z,175
2019-04-30T12:43:24.435Z,175
2019-04-30T12:44:24.417Z,175
2019-04-30T12:45:26.445Z,175
2019-04-30T12:46:28.881Z,175
2019-04-30T12:47:29.484Z,175
2019-04-30T12:48:27.254Z,175
2019-04-30T12:49:26.064Z,180
2019-04-30T12:50:26.563Z,180
2019-04-30T12:51:24.390Z,175
2019-04-30T12:52:24.387Z,180
2019-04-30T12:53:24.386Z,180
2019-04-30T12:54:24.377Z,180
2019-04-30T12:55:29.335Z,180
2019-04-30T12:56:31.585Z,180
2019-04-30T12:57:26.267Z,180
2019-04-30T12:58:25.531Z,180
2019-04-30T12:59:24.358Z,180
2019-04-30T13:00:26.530Z,185
2019-04-30T13:01:24.349Z,180
2019-04-30T13:02:26.165Z,180
2019-04-30T13:03:24.357Z,180
2019-04-30T13:04:26.422Z,180
2019-04-30T13:05:25.955Z,180
2019-04-30T13:06:27.345Z,180
2019-04-30T13:07:32.289Z,180
2019-04-30T13:08:30.553Z,180
2019-04-30T13:09:43.929Z,185
2019-04-30T13:10:27.430Z,185
2019-04-30T13:11:30.851Z,185
2019-04-30T13:12:27.506Z,185
2019-04-30T13:13:31.087Z,185
2019-04-30T13:14:29.924Z,190
2019-04-30T13:15:24.286Z,190
2019-04-30T13:16:26.465Z,190
2019-04-30T13:17:24.046Z,190
2019-04-30T13:18:24.297Z,195
2019-04-30T13:19:24.282Z,195
2019-04-30T13:20:33.634Z,195
2019-04-30T13:21:25.606Z,195
2019-04-30T13:22:26.014Z,195
2019-04-30T13:23:25.732Z,195
2019-04-30T13:24:24.808Z,190
2019-04-30T13:25:55.391Z,195
2019-04-30T13:26:25.699Z,195
2019-04-30T13:27:27.367Z,190
2019-04-30T13:28:24.232Z,195
2019-04-30T13:29:24.234Z,195
2019-04-30T13:30:29.640Z,200
2019-04-30T13:31:26.405Z,200
2019-04-30T13:32:39.341Z,205
2019-04-30T13:33:28.819Z,200
2019-04-30T13:34:25.846Z,205
2019-04-30T13:35:26.136Z,200
2019-04-30T13:36:24.614Z,200
2019-04-30T13:37:26.255Z,200
2019-04-30T13:38:23.945Z,200
2019-04-30T13:39:26.833Z,200
2019-04-30T13:40:28.548Z,200
2019-04-30T13:41:25.833Z,205
2019-04-30T13:42:29.331Z,205
2019-04-30T13:43:24.165Z,210
2019-04-30T13:44:24.293Z,210
2019-04-30T13:45:26.049Z,215
2019-04-30T13:46:25.653Z,220
2019-04-30T13:47:26.269Z,220
2019-04-30T13:48:24.242Z,220
2019-04-30T13:49:24.142Z,225
2019-04-30T13:50:29.182Z,225
2019-04-30T13:51:23.891Z,225
2019-04-30T13:52:24.131Z,230
2019-04-30T13:53:25.730Z,230
2019-04-30T13:54:24.130Z,235
2019-04-30T13:55:26.278Z,240
2019-04-30T13:56:28.659Z,240
2019-04-30T13:57:24.116Z,240
2019-04-30T13:58:24.125Z,245
2019-04-30T13:59:24.099Z,250
2019-04-30T14:00:25.681Z,260
2019-04-30T14:01:29.347Z,265
2019-04-30T14:02:25.752Z,270
2019-04-30T14:03:26.272Z,275
2019-04-30T14:04:24.083Z,280